Relevés horaires Melle (Belgique)


Relevés horaires à Melle - Samedi 21 Nov. 2015
Heure UTC1 Température [°C] Vent [km/h] Hum. [%] Pres.4 [hPa] Visi. [Km] Nébu. [octa] Préc.5 [mm] Cond.
2m. Res. Ros. Dir.2 Vit. Moy. Raf.3
23:00 3.7 3.7 2.1 NE 3.7 9.3 14.8 89 1006.7(1.5/3h) -- -- -- --
22:00 4.0 4.0 2.6 NNO 3.7 7.4 7.4 91 1006.4(2.1/3h) -- -- -- --
21:00 4.2 2.4 2.6 N 7.4 18.5 27.8 89 1006(2.5/3h) -- -- -- --
20:00 4.8 3.6 2.9 N 5.6 14.8 22.2 87 1005.2(3.1/3h) -- -- -- --
19:00 5.6 2.8 2.7 N 13.0 18.5 27.8 82 1004.3(3.5/3h) -- -- -- --
18:00 5.8 3.4 3.1 NNO 11.1 18.5 33.3 83 1003.5(4.4/3h) -- -- 7/12h
--
17:00 5.8 3.4 3.4 NNO 11.1 18.5 29.6 85 1002.1(3.9/3h) -- -- -- --
16:00 7.3 4.6 3.7 N 14.8 14.8 24.1 78 1000.8(4.1/3h) -- -- -- --
15:00 7.1 4.6 4.4 N 13.0 18.5 33.3 83 999.1(2.4/3h) -- -- -- --
14:00 7.7 4.9 3.4 N 16.7 18.5 33.3 74 998.2(1.3/3h) -- -- -- --
13:00 7.0 5.6 5.6 ONO 7.4 11.1 14.8 91 996.7(-1.2/3h) -- -- -- --
12:00 5.2 3.1 4.0 O 9.3 11.1 20.4 92 996.7(-1.5/3h) -- -- 6/6h
--
11:00 4.2 2.4 3.0 OSO 7.4 11.1 16.7 92 996.9(-1.7/3h) -- -- -- --
10:00 2.9 0.8 1.7 OSO 7.4 9.3 14.8 92 997.9(-0.3/3h) -- -- -- --
09:00 2.2 -0.5 1.1 SO 9.3 9.3 14.8 92 998.2(-0.5/3h) -- -- -- --
08:00 1.7 -1.1 0.3 O 9.3 9.3 14.8 90 998.6(-0.2/3h) -- -- -- --
07:00 1.9 -0.3 0.3 SO 7.4 7.4 11.1 89 998.3(-0.3/3h) -- -- -- --
06:00 2.4 0.3 0.9 ONO 7.4 13.0 20.4 90 998.7(-0.8/3h) -- -- 9/12h
--
05:00 3.3 1.3 1.5 O 7.4 9.3 14.8 88 998.8(-1.0/3h) -- -- -- --
04:00 3.2 0.7 1.5 SO 9.3 13.0 20.4 89 998.5(-1.7/3h) -- -- -- --
03:00 3.9 2 2.0 O 7.4 13.0 20.4 87 999.5(-1.7/3h) -- -- -- --
02:00 5.9 3.9 2.8 OSO 9.3 9.3 16.7 80 999.8(-1.8/3h) -- -- -- --
01:00 5.5 4.4 3.1 OSO 5.6 9.3 13.0 84 1000.2(-2.0/3h) -- -- -- --
00:00 5.7 3.6 3.2 OSO 9.3 13.0 24.1 84 1001.2(-1.7/3h) -- -- 4/6h
--

1 Coordinated Universal Time. Actuellement il est 11:00 locale et 09:00 UTC.

2 Le vent souffle depuis la direction indiquée vers la direction oposée.

3 Les rafales max. sont disponible 40 min après l'heure du relevé.

4 Pour les stations d'altitude (plus de 600m) le géopotentiel du niveau le plus proche de la pression obligatoire est indiqué.

5 Les stations disposant d'un diffuseur peuvent indiquer "trace". Cela signifie que des précipitations ont touchés le sol mais que la quantité est inférieure à 0.1 mm.

Récapitulatif de la journée
Température [°C] Vent [km/h] Ensoleillement4 [h] Precipitations totale5 [mm] Pression [Hpa]
Min1 Max.2 Moy.3 Max. Min Max.
2.4 8.1 12.7 33.3 0 h 0 min 0 996.7 1006.7

1 Température minimale relevée entre 18:00 UTC la veille et 18:00 UTC le jour donné.

2 Température maximale relevée entre 06:00 UTC le jour donné et 06:00 UTC le lendemain.

3 Vent moyen de la journée basé sur les relevés horaires.

4 Ensoleillement en heures relevé entre 06:00 UTC la veille et 06:00 UTC le jour donné.

5 Précipitations totales tombées entre 06:00 UTC la jour donné et 06:00 UTC le lendemain.

Graphiques horaires